sensor_id;sensor_type;location;lat;lon;timestamp;temperature;humidity
1137;DHT22;557;48.466;7.950;2022-07-23T00:02:22;22.50;1.00
1137;DHT22;557;48.466;7.950;2022-07-23T00:05:08;22.40;1.00
1137;DHT22;557;48.466;7.950;2022-07-23T00:07:55;22.30;1.00
1137;DHT22;557;48.466;7.950;2022-07-23T00:10:42;22.20;1.00
1137;DHT22;557;48.466;7.950;2022-07-23T00:13:27;22.20;1.00
1137;DHT22;557;48.466;7.950;2022-07-23T00:16:13;22.10;1.00
1137;DHT22;557;48.466;7.950;2022-07-23T00:18:59;22.30;1.00
1137;DHT22;557;48.466;7.950;2022-07-23T00:21:47;22.50;99.90
1137;DHT22;557;48.466;7.950;2022-07-23T00:24:33;22.60;99.90
1137;DHT22;557;48.466;7.950;2022-07-23T00:27:20;22.50;99.90
1137;DHT22;557;48.466;7.950;2022-07-23T00:30:06;22.30;99.90
1137;DHT22;557;48.466;7.950;2022-07-23T00:32:54;22.10;1.00
1137;DHT22;557;48.466;7.950;2022-07-23T00:35:42;21.90;1.00
1137;DHT22;557;48.466;7.950;2022-07-23T00:38:28;21.90;1.00
1137;DHT22;557;48.466;7.950;2022-07-23T00:41:14;21.90;1.00
1137;DHT22;557;48.466;7.950;2022-07-23T00:44:17;21.90;1.00
1137;DHT22;557;48.466;7.950;2022-07-23T00:47:04;22.00;99.90
1137;DHT22;557;48.466;7.950;2022-07-23T00:49:50;22.10;20.60
1137;DHT22;557;48.466;7.950;2022-07-23T00:52:37;22.20;99.90
1137;DHT22;557;48.466;7.950;2022-07-23T00:55:23;22.20;99.90
1137;DHT22;557;48.466;7.950;2022-07-23T00:58:09;22.20;99.90
1137;DHT22;557;48.466;7.950;2022-07-23T01:00:56;22.10;99.90
1137;DHT22;557;48.466;7.950;2022-07-23T01:03:42;22.00;99.90
1137;DHT22;557;48.466;7.950;2022-07-23T01:06:28;21.80;1.00
1137;DHT22;557;48.466;7.950;2022-07-23T01:09:14;21.50;1.00
1137;DHT22;557;48.466;7.950;2022-07-23T01:12:01;21.40;1.00
1137;DHT22;557;48.466;7.950;2022-07-23T01:14:54;21.20;1.00
1137;DHT22;557;48.466;7.950;2022-07-23T01:17:41;21.20;1.00
1137;DHT22;557;48.466;7.950;2022-07-23T01:20:27;21.10;1.00
1137;DHT22;557;48.466;7.950;2022-07-23T01:23:14;21.00;24.30
1137;DHT22;557;48.466;7.950;2022-07-23T01:26:00;21.00;44.20
1137;DHT22;557;48.466;7.950;2022-07-23T01:28:47;21.00;33.90
1137;DHT22;557;48.466;7.950;2022-07-23T01:31:33;20.90;37.40
1137;DHT22;557;48.466;7.950;2022-07-23T01:34:19;20.80;37.60
1137;DHT22;557;48.466;7.950;2022-07-23T01:37:06;20.70;45.60
1137;DHT22;557;48.466;7.950;2022-07-23T01:39:53;20.70;72.90
1137;DHT22;557;48.466;7.950;2022-07-23T01:42:39;20.70;44.80
1137;DHT22;557;48.466;7.950;2022-07-23T01:45:24;20.70;71.70
1137;DHT22;557;48.466;7.950;2022-07-23T01:48:10;20.70;47.90
1137;DHT22;557;48.466;7.950;2022-07-23T01:50:56;20.60;44.70
1137;DHT22;557;48.466;7.950;2022-07-23T01:53:42;20.60;41.20
1137;DHT22;557;48.466;7.950;2022-07-23T01:56:29;20.50;56.20
1137;DHT22;557;48.466;7.950;2022-07-23T01:59:14;20.60;72.80
1137;DHT22;557;48.466;7.950;2022-07-23T02:02:01;20.50;52.00
1137;DHT22;557;48.466;7.950;2022-07-23T02:04:48;20.60;56.20
1137;DHT22;557;48.466;7.950;2022-07-23T02:07:33;20.50;68.70
1137;DHT22;557;48.466;7.950;2022-07-23T02:10:19;20.60;81.90
1137;DHT22;557;48.466;7.950;2022-07-23T02:13:07;20.50;41.80
1137;DHT22;557;48.466;7.950;2022-07-23T02:15:52;20.50;35.50
1137;DHT22;557;48.466;7.950;2022-07-23T02:18:38;20.60;30.60
1137;DHT22;557;48.466;7.950;2022-07-23T02:21:24;20.40;35.60
1137;DHT22;557;48.466;7.950;2022-07-23T02:24:27;20.40;42.60
1137;DHT22;557;48.466;7.950;2022-07-23T02:27:13;20.40;61.70
1137;DHT22;557;48.466;7.950;2022-07-23T02:30:00;20.30;62.50
1137;DHT22;557;48.466;7.950;2022-07-23T02:32:46;20.30;82.60
1137;DHT22;557;48.466;7.950;2022-07-23T02:35:31;20.30;99.90
1137;DHT22;557;48.466;7.950;2022-07-23T02:38:17;20.10;96.90
1137;DHT22;557;48.466;7.950;2022-07-23T02:45:04;19.90;99.90
1137;DHT22;557;48.466;7.950;2022-07-23T02:47:50;19.90;99.90
1137;DHT22;557;48.466;7.950;2022-07-23T02:50:36;19.80;99.90
1137;DHT22;557;48.466;7.950;2022-07-23T02:53:22;19.80;99.90
1137;DHT22;557;48.466;7.950;2022-07-23T02:56:08;19.80;99.90
1137;DHT22;557;48.466;7.950;2022-07-23T02:58:53;19.70;99.90
1137;DHT22;557;48.466;7.950;2022-07-23T03:01:41;19.60;99.90
1137;DHT22;557;48.466;7.950;2022-07-23T03:04:26;19.60;99.90
1137;DHT22;557;48.466;7.950;2022-07-23T03:07:12;19.60;99.90
1137;DHT22;557;48.466;7.950;2022-07-23T03:09:58;19.60;99.90
1137;DHT22;557;48.466;7.950;2022-07-23T03:12:44;19.70;99.90
1137;DHT22;557;48.466;7.950;2022-07-23T03:15:29;19.60;99.90
1137;DHT22;557;48.466;7.950;2022-07-23T03:18:16;19.60;99.90
1137;DHT22;557;48.466;7.950;2022-07-23T03:21:03;19.50;99.90
1137;DHT22;557;48.466;7.950;2022-07-23T03:23:49;19.60;99.90
1137;DHT22;557;48.466;7.950;2022-07-23T03:26:35;19.60;99.90
1137;DHT22;557;48.466;7.950;2022-07-23T03:29:20;19.70;99.90
1137;DHT22;557;48.466;7.950;2022-07-23T03:32:06;19.80;99.90
1137;DHT22;557;48.466;7.950;2022-07-23T03:34:53;19.70;99.90
1137;DHT22;557;48.466;7.950;2022-07-23T03:37:39;19.60;99.90
1137;DHT22;557;48.466;7.950;2022-07-23T03:40:25;19.70;99.90
1137;DHT22;557;48.466;7.950;2022-07-23T03:43:11;19.70;99.90
1137;DHT22;557;48.466;7.950;2022-07-23T03:45:57;19.60;99.90
1137;DHT22;557;48.466;7.950;2022-07-23T03:48:43;19.60;99.90
1137;DHT22;557;48.466;7.950;2022-07-23T03:51:30;19.60;99.90
1137;DHT22;557;48.466;7.950;2022-07-23T03:54:16;19.70;99.90
1137;DHT22;557;48.466;7.950;2022-07-23T03:57:02;19.80;99.90
1137;DHT22;557;48.466;7.950;2022-07-23T03:59:48;19.70;99.90
1137;DHT22;557;48.466;7.950;2022-07-23T04:02:33;19.70;99.90
1137;DHT22;557;48.466;7.950;2022-07-23T04:05:19;19.50;99.90
1137;DHT22;557;48.466;7.950;2022-07-23T04:08:06;19.50;99.90
1137;DHT22;557;48.466;7.950;2022-07-23T04:10:52;19.40;99.90
1137;DHT22;557;48.466;7.950;2022-07-23T04:13:38;19.40;99.90
1137;DHT22;557;48.466;7.950;2022-07-23T04:16:24;19.40;99.90
1137;DHT22;557;48.466;7.950;2022-07-23T04:19:10;19.40;99.90
1137;DHT22;557;48.466;7.950;2022-07-23T04:21:55;19.40;99.90
1137;DHT22;557;48.466;7.950;2022-07-23T04:24:43;19.50;99.90
1137;DHT22;557;48.466;7.950;2022-07-23T04:27:28;19.60;99.90
1137;DHT22;557;48.466;7.950;2022-07-23T04:30:14;19.80;99.90
1137;DHT22;557;48.466;7.950;2022-07-23T04:33:00;19.80;99.90
1137;DHT22;557;48.466;7.950;2022-07-23T04:35:46;19.90;99.90
1137;DHT22;557;48.466;7.950;2022-07-23T04:38:32;19.90;99.90
1137;DHT22;557;48.466;7.950;2022-07-23T04:41:20;20.00;99.90
1137;DHT22;557;48.466;7.950;2022-07-23T04:44:05;20.00;86.50
1137;DHT22;557;48.466;7.950;2022-07-23T04:46:51;20.10;79.90
1137;DHT22;557;48.466;7.950;2022-07-23T04:49:37;20.20;56.80
1137;DHT22;557;48.466;7.950;2022-07-23T04:52:23;20.30;36.80
1137;DHT22;557;48.466;7.950;2022-07-23T04:55:09;20.40;23.70
1137;DHT22;557;48.466;7.950;2022-07-23T04:57:55;20.50;7.40
1137;DHT22;557;48.466;7.950;2022-07-23T05:00:41;20.60;1.00
1137;DHT22;557;48.466;7.950;2022-07-23T05:03:27;20.50;19.90
1137;DHT22;557;48.466;7.950;2022-07-23T05:06:13;20.40;46.90
1137;DHT22;557;48.466;7.950;2022-07-23T05:08:59;20.30;73.30
1137;DHT22;557;48.466;7.950;2022-07-23T05:11:44;20.20;94.90
1137;DHT22;557;48.466;7.950;2022-07-23T05:14:31;20.20;99.90
1137;DHT22;557;48.466;7.950;2022-07-23T05:17:17;20.20;99.90
1137;DHT22;557;48.466;7.950;2022-07-23T05:20:04;20.40;93.70
1137;DHT22;557;48.466;7.950;2022-07-23T05:22:49;20.40;73.80
1137;DHT22;557;48.466;7.950;2022-07-23T05:25:35;20.60;72.00
1137;DHT22;557;48.466;7.950;2022-07-23T05:28:21;20.90;37.10
1137;DHT22;557;48.466;7.950;2022-07-23T05:31:09;21.10;9.00
1137;DHT22;557;48.466;7.950;2022-07-23T05:33:55;21.30;1.00
1137;DHT22;557;48.466;7.950;2022-07-23T05:36:41;21.50;1.00
1137;DHT22;557;48.466;7.950;2022-07-23T05:39:26;21.40;1.00
1137;DHT22;557;48.466;7.950;2022-07-23T05:42:12;21.50;5.70
1137;DHT22;557;48.466;7.950;2022-07-23T05:44:58;21.50;1.00
1137;DHT22;557;48.466;7.950;2022-07-23T05:47:47;21.30;1.00
1137;DHT22;557;48.466;7.950;2022-07-23T05:50:33;21.20;3.40
1137;DHT22;557;48.466;7.950;2022-07-23T05:53:19;21.20;20.60
1137;DHT22;557;48.466;7.950;2022-07-23T05:56:05;21.20;7.70
1137;DHT22;557;48.466;7.950;2022-07-23T05:58:50;21.30;11.70
1137;DHT22;557;48.466;7.950;2022-07-23T06:01:36;21.30;12.70
1137;DHT22;557;48.466;7.950;2022-07-23T06:04:24;21.40;12.00
1137;DHT22;557;48.466;7.950;2022-07-23T06:07:10;21.60;1.00
1137;DHT22;557;48.466;7.950;2022-07-23T06:09:56;21.90;1.00
1137;DHT22;557;48.466;7.950;2022-07-23T06:12:42;22.20;1.00
1137;DHT22;557;48.466;7.950;2022-07-23T06:15:28;22.40;1.00
1137;DHT22;557;48.466;7.950;2022-07-23T06:18:14;22.50;1.00
1137;DHT22;557;48.466;7.950;2022-07-23T06:21:01;22.60;1.00
1137;DHT22;557;48.466;7.950;2022-07-23T06:23:48;22.60;1.00
1137;DHT22;557;48.466;7.950;2022-07-23T06:26:34;22.40;1.00
1137;DHT22;557;48.466;7.950;2022-07-23T06:29:20;22.40;1.00
1137;DHT22;557;48.466;7.950;2022-07-23T06:32:06;22.40;1.00
1137;DHT22;557;48.466;7.950;2022-07-23T06:34:52;22.40;1.00
1137;DHT22;557;48.466;7.950;2022-07-23T06:37:39;22.40;1.00
1137;DHT22;557;48.466;7.950;2022-07-23T06:40:25;22.60;1.00
1137;DHT22;557;48.466;7.950;2022-07-23T06:43:10;22.60;1.00
1137;DHT22;557;48.466;7.950;2022-07-23T06:45:56;22.60;1.00
1137;DHT22;557;48.466;7.950;2022-07-23T06:48:42;22.60;1.00
1137;DHT22;557;48.466;7.950;2022-07-23T06:51:27;22.70;1.00
1137;DHT22;557;48.466;7.950;2022-07-23T06:54:15;22.80;1.00
1137;DHT22;557;48.466;7.950;2022-07-23T06:57:01;22.80;1.00
1137;DHT22;557;48.466;7.950;2022-07-23T06:59:46;22.90;1.00
1137;DHT22;557;48.466;7.950;2022-07-23T07:02:32;22.90;1.00
1137;DHT22;557;48.466;7.950;2022-07-23T07:05:18;23.00;1.00
1137;DHT22;557;48.466;7.950;2022-07-23T07:08:04;23.30;1.00
1137;DHT22;557;48.466;7.950;2022-07-23T07:10:51;23.60;99.90
1137;DHT22;557;48.466;7.950;2022-07-23T07:13:38;23.60;1.00
1137;DHT22;557;48.466;7.950;2022-07-23T07:16:23;23.60;1.00
1137;DHT22;557;48.466;7.950;2022-07-23T07:19:09;23.60;1.00
1137;DHT22;557;48.466;7.950;2022-07-23T07:21:55;23.60;99.90
1137;DHT22;557;48.466;7.950;2022-07-23T07:24:40;23.70;1.00
1137;DHT22;557;48.466;7.950;2022-07-23T07:27:27;23.60;99.90
1137;DHT22;557;48.466;7.950;2022-07-23T07:30:13;23.70;1.00
1137;DHT22;557;48.466;7.950;2022-07-23T07:32:59;23.70;99.90
1137;DHT22;557;48.466;7.950;2022-07-23T07:35:45;23.70;99.90
1137;DHT22;557;48.466;7.950;2022-07-23T07:38:30;23.90;1.00
1137;DHT22;557;48.466;7.950;2022-07-23T07:41:16;24.10;1.00
1137;DHT22;557;48.466;7.950;2022-07-23T07:44:08;24.30;99.90
1137;DHT22;557;48.466;7.950;2022-07-23T07:46:54;24.30;99.90
1137;DHT22;557;48.466;7.950;2022-07-23T07:49:39;24.50;99.90
1137;DHT22;557;48.466;7.950;2022-07-23T07:52:25;24.30;99.90
1137;DHT22;557;48.466;7.950;2022-07-23T07:55:11;24.00;99.90
1137;DHT22;557;48.466;7.950;2022-07-23T07:57:57;23.90;99.90
1137;DHT22;557;48.466;7.950;2022-07-23T08:00:44;23.90;1.00
1137;DHT22;557;48.466;7.950;2022-07-23T08:03:29;24.30;1.00
1137;DHT22;557;48.466;7.950;2022-07-23T08:06:16;24.60;56.50
1137;DHT22;557;48.466;7.950;2022-07-23T08:09:02;25.10;99.90
1137;DHT22;557;48.466;7.950;2022-07-23T08:11:47;25.30;1.00
1137;DHT22;557;48.466;7.950;2022-07-23T08:14:36;25.30;99.90
1137;DHT22;557;48.466;7.950;2022-07-23T08:17:23;25.40;1.00
1137;DHT22;557;48.466;7.950;2022-07-23T08:20:10;25.50;1.00
1137;DHT22;557;48.466;7.950;2022-07-23T08:22:57;25.60;1.00
1137;DHT22;557;48.466;7.950;2022-07-23T08:25:43;25.80;1.00
1137;DHT22;557;48.466;7.950;2022-07-23T08:28:29;26.40;1.00
1137;DHT22;557;48.466;7.950;2022-07-23T08:31:17;26.80;99.90
1137;DHT22;557;48.466;7.950;2022-07-23T08:34:04;27.30;99.90
1137;DHT22;557;48.466;7.950;2022-07-23T08:36:49;27.20;99.90
1137;DHT22;557;48.466;7.950;2022-07-23T08:39:35;27.00;99.90
1137;DHT22;557;48.466;7.950;2022-07-23T08:42:21;26.80;99.90
1137;DHT22;557;48.466;7.950;2022-07-23T08:45:08;26.70;99.90
1137;DHT22;557;48.466;7.950;2022-07-23T08:47:56;26.90;99.90
1137;DHT22;557;48.466;7.950;2022-07-23T08:50:46;27.00;99.90
1137;DHT22;557;48.466;7.950;2022-07-23T08:53:32;27.20;99.90
1137;DHT22;557;48.466;7.950;2022-07-23T08:56:19;27.40;99.90
1137;DHT22;557;48.466;7.950;2022-07-23T08:59:04;27.60;99.90
1137;DHT22;557;48.466;7.950;2022-07-23T09:01:50;27.90;99.90
1137;DHT22;557;48.466;7.950;2022-07-23T09:04:36;28.00;99.90
1137;DHT22;557;48.466;7.950;2022-07-23T09:07:23;28.10;99.90
1137;DHT22;557;48.466;7.950;2022-07-23T09:10:11;28.10;99.90
1137;DHT22;557;48.466;7.950;2022-07-23T09:12:57;28.30;99.90
1137;DHT22;557;48.466;7.950;2022-07-23T09:15:48;28.30;99.90
1137;DHT22;557;48.466;7.950;2022-07-23T09:18:41;28.50;99.90
1137;DHT22;557;48.466;7.950;2022-07-23T09:21:29;28.30;99.90
1137;DHT22;557;48.466;7.950;2022-07-23T09:24:17;28.10;99.90
1137;DHT22;557;48.466;7.950;2022-07-23T09:27:05;28.20;99.90
1137;DHT22;557;48.466;7.950;2022-07-23T09:29:56;28.30;99.90
1137;DHT22;557;48.466;7.950;2022-07-23T09:32:42;28.30;99.90
1137;DHT22;557;48.466;7.950;2022-07-23T09:35:43;28.60;99.90
1137;DHT22;557;48.466;7.950;2022-07-23T09:38:30;28.70;99.90
1137;DHT22;557;48.466;7.950;2022-07-23T09:41:17;28.90;99.90
1137;DHT22;557;48.466;7.950;2022-07-23T09:44:11;29.00;99.90
1137;DHT22;557;48.466;7.950;2022-07-23T09:47:00;29.20;99.90
1137;DHT22;557;48.466;7.950;2022-07-23T09:49:58;29.00;99.90
1137;DHT22;557;48.466;7.950;2022-07-23T09:52:47;29.40;99.90
1137;DHT22;557;48.466;7.950;2022-07-23T09:55:34;29.70;99.90
1137;DHT22;557;48.466;7.950;2022-07-23T09:58:23;29.90;99.90
1137;DHT22;557;48.466;7.950;2022-07-23T10:01:11;29.80;97.40
1137;DHT22;557;48.466;7.950;2022-07-23T10:03:58;29.50;99.90
1137;DHT22;557;48.466;7.950;2022-07-23T10:06:44;29.40;98.20
1137;DHT22;557;48.466;7.950;2022-07-23T10:09:33;29.70;89.60
1137;DHT22;557;48.466;7.950;2022-07-23T10:12:19;30.10;71.80
1137;DHT22;557;48.466;7.950;2022-07-23T10:15:20;30.40;72.40
1137;DHT22;557;48.466;7.950;2022-07-23T10:18:06;30.30;55.40
1137;DHT22;557;48.466;7.950;2022-07-23T10:20:51;30.30;51.20
1137;DHT22;557;48.466;7.950;2022-07-23T10:23:42;30.30;51.10
1137;DHT22;557;48.466;7.950;2022-07-23T10:26:38;30.50;50.20
1137;DHT22;557;48.466;7.950;2022-07-23T10:29:39;30.40;52.00
1137;DHT22;557;48.466;7.950;2022-07-23T10:32:37;30.50;53.90
1137;DHT22;557;48.466;7.950;2022-07-23T10:35:31;30.50;45.40
1137;DHT22;557;48.466;7.950;2022-07-23T10:38:21;30.60;44.10
1137;DHT22;557;48.466;7.950;2022-07-23T10:41:10;30.50;31.30
1137;DHT22;557;48.466;7.950;2022-07-23T10:44:06;30.10;31.20
1137;DHT22;557;48.466;7.950;2022-07-23T10:46:56;30.40;27.80
1137;DHT22;557;48.466;7.950;2022-07-23T10:50:20;30.50;28.40
1137;DHT22;557;48.466;7.950;2022-07-23T10:53:13;30.70;32.40
1137;DHT22;557;48.466;7.950;2022-07-23T10:56:00;30.50;32.60
1137;DHT22;557;48.466;7.950;2022-07-23T10:58:47;30.10;25.00
1137;DHT22;557;48.466;7.950;2022-07-23T11:01:35;30.30;25.00
1137;DHT22;557;48.466;7.950;2022-07-23T11:04:48;30.00;22.40
1137;DHT22;557;48.466;7.950;2022-07-23T11:07:35;29.60;21.40
1137;DHT22;557;48.466;7.950;2022-07-23T11:10:32;29.50;18.90
1137;DHT22;557;48.466;7.950;2022-07-23T11:13:51;29.80;26.00
1137;DHT22;557;48.466;7.950;2022-07-23T11:16:47;30.40;16.70
1137;DHT22;557;48.466;7.950;2022-07-23T11:23:13;31.80;19.40
1137;DHT22;557;48.466;7.950;2022-07-23T11:25:59;32.20;9.70
1137;DHT22;557;48.466;7.950;2022-07-23T11:28:45;32.00;7.30
1137;DHT22;557;48.466;7.950;2022-07-23T11:31:31;31.40;4.70
1137;DHT22;557;48.466;7.950;2022-07-23T11:34:29;31.30;3.00
1137;DHT22;557;48.466;7.950;2022-07-23T11:37:37;31.40;1.10
1137;DHT22;557;48.466;7.950;2022-07-23T11:40:25;31.30;3.30
1137;DHT22;557;48.466;7.950;2022-07-23T11:43:12;31.60;1.00
1137;DHT22;557;48.466;7.950;2022-07-23T11:45:59;32.10;1.00
1137;DHT22;557;48.466;7.950;2022-07-23T11:49:01;32.10;1.00
1137;DHT22;557;48.466;7.950;2022-07-23T11:52:02;31.90;1.00
1137;DHT22;557;48.466;7.950;2022-07-23T11:54:50;31.80;1.00
1137;DHT22;557;48.466;7.950;2022-07-23T11:57:39;31.70;1.00
1137;DHT22;557;48.466;7.950;2022-07-23T12:00:26;31.40;1.00
1137;DHT22;557;48.466;7.950;2022-07-23T12:03:13;30.90;1.00
1137;DHT22;557;48.466;7.950;2022-07-23T12:06:00;30.30;1.00
1137;DHT22;557;48.466;7.950;2022-07-23T12:08:46;30.10;1.00
1137;DHT22;557;48.466;7.950;2022-07-23T12:11:32;30.10;1.00
1137;DHT22;557;48.466;7.950;2022-07-23T12:14:19;29.90;1.00
1137;DHT22;557;48.466;7.950;2022-07-23T12:17:07;30.10;1.00
1137;DHT22;557;48.466;7.950;2022-07-23T12:19:54;30.20;1.00
1137;DHT22;557;48.466;7.950;2022-07-23T12:22:41;30.70;1.00
1137;DHT22;557;48.466;7.950;2022-07-23T12:25:29;31.10;1.00
1137;DHT22;557;48.466;7.950;2022-07-23T12:28:17;31.70;1.00
1137;DHT22;557;48.466;7.950;2022-07-23T12:31:05;31.90;1.00
1137;DHT22;557;48.466;7.950;2022-07-23T12:33:51;31.40;1.00
1137;DHT22;557;48.466;7.950;2022-07-23T12:36:38;31.30;1.00
1137;DHT22;557;48.466;7.950;2022-07-23T12:39:31;30.90;1.00
1137;DHT22;557;48.466;7.950;2022-07-23T12:42:17;30.70;1.00
1137;DHT22;557;48.466;7.950;2022-07-23T12:45:08;30.90;1.00
1137;DHT22;557;48.466;7.950;2022-07-23T12:48:02;30.60;1.00
1137;DHT22;557;48.466;7.950;2022-07-23T12:50:52;30.30;1.00
1137;DHT22;557;48.466;7.950;2022-07-23T12:53:40;30.50;1.00
1137;DHT22;557;48.466;7.950;2022-07-23T12:56:28;30.80;1.00
1137;DHT22;557;48.466;7.950;2022-07-23T12:59:15;31.90;1.00
1137;DHT22;557;48.466;7.950;2022-07-23T13:02:01;32.30;1.00
1137;DHT22;557;48.466;7.950;2022-07-23T13:04:48;32.40;1.00
1137;DHT22;557;48.466;7.950;2022-07-23T13:07:33;32.80;1.00
1137;DHT22;557;48.466;7.950;2022-07-23T13:10:19;33.40;1.00
1137;DHT22;557;48.466;7.950;2022-07-23T13:13:08;33.10;1.00
1137;DHT22;557;48.466;7.950;2022-07-23T13:15:55;32.20;1.00
1137;DHT22;557;48.466;7.950;2022-07-23T13:18:41;31.60;1.00
1137;DHT22;557;48.466;7.950;2022-07-23T13:21:29;31.80;1.00
1137;DHT22;557;48.466;7.950;2022-07-23T13:24:15;32.00;1.00
1137;DHT22;557;48.466;7.950;2022-07-23T13:27:01;31.90;1.00
1137;DHT22;557;48.466;7.950;2022-07-23T13:29:48;32.10;1.00
1137;DHT22;557;48.466;7.950;2022-07-23T13:32:33;31.70;1.00
1137;DHT22;557;48.466;7.950;2022-07-23T13:35:19;31.20;1.00
1137;DHT22;557;48.466;7.950;2022-07-23T13:38:07;31.20;1.00
1137;DHT22;557;48.466;7.950;2022-07-23T13:40:53;32.20;1.00
1137;DHT22;557;48.466;7.950;2022-07-23T13:43:39;32.20;1.00
1137;DHT22;557;48.466;7.950;2022-07-23T13:46:24;31.70;1.00
1137;DHT22;557;48.466;7.950;2022-07-23T13:49:10;31.00;1.00
1137;DHT22;557;48.466;7.950;2022-07-23T13:51:56;30.70;1.00
1137;DHT22;557;48.466;7.950;2022-07-23T13:54:44;30.40;1.00
1137;DHT22;557;48.466;7.950;2022-07-23T13:57:29;30.90;1.00
1137;DHT22;557;48.466;7.950;2022-07-23T14:00:15;30.90;1.00
1137;DHT22;557;48.466;7.950;2022-07-23T14:03:01;30.60;1.00
1137;DHT22;557;48.466;7.950;2022-07-23T14:05:47;30.60;1.00
1137;DHT22;557;48.466;7.950;2022-07-23T14:08:33;30.70;1.00
1137;DHT22;557;48.466;7.950;2022-07-23T14:11:20;30.70;1.00
1137;DHT22;557;48.466;7.950;2022-07-23T14:14:06;30.80;1.00
1137;DHT22;557;48.466;7.950;2022-07-23T14:16:51;31.40;1.00
1137;DHT22;557;48.466;7.950;2022-07-23T14:19:37;32.20;1.00
1137;DHT22;557;48.466;7.950;2022-07-23T14:22:23;32.50;1.00
1137;DHT22;557;48.466;7.950;2022-07-23T14:25:09;32.20;1.00
1137;DHT22;557;48.466;7.950;2022-07-23T14:27:56;32.40;1.00
1137;DHT22;557;48.466;7.950;2022-07-23T14:30:42;32.10;1.00
1137;DHT22;557;48.466;7.950;2022-07-23T14:33:28;31.40;1.00
1137;DHT22;557;48.466;7.950;2022-07-23T14:36:13;30.90;1.00
1137;DHT22;557;48.466;7.950;2022-07-23T14:38:59;30.40;1.00
1137;DHT22;557;48.466;7.950;2022-07-23T14:41:45;30.30;1.00
1137;DHT22;557;48.466;7.950;2022-07-23T14:44:32;30.20;1.00
1137;DHT22;557;48.466;7.950;2022-07-23T14:47:18;30.20;1.00
1137;DHT22;557;48.466;7.950;2022-07-23T14:50:04;30.30;1.00
1137;DHT22;557;48.466;7.950;2022-07-23T14:52:50;31.00;1.00
1137;DHT22;557;48.466;7.950;2022-07-23T14:55:36;31.60;1.00
1137;DHT22;557;48.466;7.950;2022-07-23T14:58:21;32.20;1.00
1137;DHT22;557;48.466;7.950;2022-07-23T15:01:09;32.40;1.00
1137;DHT22;557;48.466;7.950;2022-07-23T15:03:55;32.10;1.00
1137;DHT22;557;48.466;7.950;2022-07-23T15:06:41;31.90;1.00
1137;DHT22;557;48.466;7.950;2022-07-23T15:09:26;31.50;1.00
1137;DHT22;557;48.466;7.950;2022-07-23T15:12:12;30.90;1.00
1137;DHT22;557;48.466;7.950;2022-07-23T15:14:58;30.60;1.00
1137;DHT22;557;48.466;7.950;2022-07-23T15:17:45;30.50;1.00
1137;DHT22;557;48.466;7.950;2022-07-23T15:20:30;30.30;1.00
1137;DHT22;557;48.466;7.950;2022-07-23T15:23:16;30.30;1.00
1137;DHT22;557;48.466;7.950;2022-07-23T15:26:02;30.50;1.00
1137;DHT22;557;48.466;7.950;2022-07-23T15:28:48;30.40;1.00
1137;DHT22;557;48.466;7.950;2022-07-23T15:31:34;30.40;1.00
1137;DHT22;557;48.466;7.950;2022-07-23T15:34:21;30.40;1.00
1137;DHT22;557;48.466;7.950;2022-07-23T15:37:07;30.50;1.00
1137;DHT22;557;48.466;7.950;2022-07-23T15:39:53;30.40;1.00
1137;DHT22;557;48.466;7.950;2022-07-23T15:42:39;30.20;1.00
1137;DHT22;557;48.466;7.950;2022-07-23T15:45:24;30.30;1.00
1137;DHT22;557;48.466;7.950;2022-07-23T15:48:10;30.30;1.00
1137;DHT22;557;48.466;7.950;2022-07-23T15:50:58;30.30;1.00
1137;DHT22;557;48.466;7.950;2022-07-23T15:53:45;30.00;1.00
1137;DHT22;557;48.466;7.950;2022-07-23T15:56:31;30.00;1.00
1137;DHT22;557;48.466;7.950;2022-07-23T15:59:17;30.10;1.00
1137;DHT22;557;48.466;7.950;2022-07-23T16:02:03;30.20;1.00
1137;DHT22;557;48.466;7.950;2022-07-23T16:04:50;30.30;1.00
1137;DHT22;557;48.466;7.950;2022-07-23T16:07:38;30.40;1.00
1137;DHT22;557;48.466;7.950;2022-07-23T16:10:23;30.30;1.00
1137;DHT22;557;48.466;7.950;2022-07-23T16:13:09;30.30;1.00
1137;DHT22;557;48.466;7.950;2022-07-23T16:15:55;30.10;1.00
1137;DHT22;557;48.466;7.950;2022-07-23T16:18:41;29.90;1.00
1137;DHT22;557;48.466;7.950;2022-07-23T16:21:26;29.80;1.00
1137;DHT22;557;48.466;7.950;2022-07-23T16:24:13;29.80;1.00
1137;DHT22;557;48.466;7.950;2022-07-23T16:26:59;29.60;1.00
1137;DHT22;557;48.466;7.950;2022-07-23T16:29:45;29.60;1.00
1137;DHT22;557;48.466;7.950;2022-07-23T16:32:31;29.50;1.00
1137;DHT22;557;48.466;7.950;2022-07-23T16:35:16;29.50;1.00
1137;DHT22;557;48.466;7.950;2022-07-23T16:38:02;29.40;1.00
1137;DHT22;557;48.466;7.950;2022-07-23T16:40:50;29.40;1.00
1137;DHT22;557;48.466;7.950;2022-07-23T16:43:36;29.10;1.00
1137;DHT22;557;48.466;7.950;2022-07-23T16:46:22;29.00;1.00
1137;DHT22;557;48.466;7.950;2022-07-23T16:49:08;29.00;1.00
1137;DHT22;557;48.466;7.950;2022-07-23T16:51:54;28.90;1.00
1137;DHT22;557;48.466;7.950;2022-07-23T16:54:40;28.80;1.00
1137;DHT22;557;48.466;7.950;2022-07-23T16:57:27;28.80;1.00
1137;DHT22;557;48.466;7.950;2022-07-23T17:00:13;28.70;1.00
1137;DHT22;557;48.466;7.950;2022-07-23T17:02:58;28.70;1.00
1137;DHT22;557;48.466;7.950;2022-07-23T17:05:44;28.60;1.00
1137;DHT22;557;48.466;7.950;2022-07-23T17:08:30;28.60;1.00
1137;DHT22;557;48.466;7.950;2022-07-23T17:11:16;28.70;1.00
1137;DHT22;557;48.466;7.950;2022-07-23T17:14:03;28.90;1.00
1137;DHT22;557;48.466;7.950;2022-07-23T17:16:49;29.10;1.00
1137;DHT22;557;48.466;7.950;2022-07-23T17:19:35;29.10;1.00
1137;DHT22;557;48.466;7.950;2022-07-23T17:22:20;29.10;1.00
1137;DHT22;557;48.466;7.950;2022-07-23T17:25:06;29.20;1.00
1137;DHT22;557;48.466;7.950;2022-07-23T17:27:56;29.30;1.00
1137;DHT22;557;48.466;7.950;2022-07-23T17:30:43;29.30;1.00
1137;DHT22;557;48.466;7.950;2022-07-23T17:33:29;29.30;1.00
1137;DHT22;557;48.466;7.950;2022-07-23T17:36:15;29.40;1.00
1137;DHT22;557;48.466;7.950;2022-07-23T17:39:01;29.30;1.00
1137;DHT22;557;48.466;7.950;2022-07-23T17:41:46;29.30;1.00
1137;DHT22;557;48.466;7.950;2022-07-23T17:44:33;29.10;1.00
1137;DHT22;557;48.466;7.950;2022-07-23T17:47:20;29.00;1.00
1137;DHT22;557;48.466;7.950;2022-07-23T17:50:07;28.90;1.00
1137;DHT22;557;48.466;7.950;2022-07-23T17:52:55;28.80;1.00
1137;DHT22;557;48.466;7.950;2022-07-23T17:55:42;28.70;1.00
1137;DHT22;557;48.466;7.950;2022-07-23T17:58:28;28.60;1.00
1137;DHT22;557;48.466;7.950;2022-07-23T18:01:13;28.50;1.00
1137;DHT22;557;48.466;7.950;2022-07-23T18:04:01;28.40;1.00
1137;DHT22;557;48.466;7.950;2022-07-23T18:06:47;28.30;1.00
1137;DHT22;557;48.466;7.950;2022-07-23T18:09:35;28.30;1.00
1137;DHT22;557;48.466;7.950;2022-07-23T18:12:20;28.20;1.00
1137;DHT22;557;48.466;7.950;2022-07-23T18:15:07;28.20;1.00
1137;DHT22;557;48.466;7.950;2022-07-23T18:17:53;28.20;1.00
1137;DHT22;557;48.466;7.950;2022-07-23T18:20:40;28.10;1.00
1137;DHT22;557;48.466;7.950;2022-07-23T18:23:26;28.10;1.00
1137;DHT22;557;48.466;7.950;2022-07-23T18:26:11;28.00;1.00
1137;DHT22;557;48.466;7.950;2022-07-23T18:28:58;27.90;1.00
1137;DHT22;557;48.466;7.950;2022-07-23T18:31:43;27.90;1.00
1137;DHT22;557;48.466;7.950;2022-07-23T18:34:30;27.80;1.00
1137;DHT22;557;48.466;7.950;2022-07-23T18:37:17;27.70;1.00
1137;DHT22;557;48.466;7.950;2022-07-23T18:40:05;27.50;1.00
1137;DHT22;557;48.466;7.950;2022-07-23T18:42:51;27.40;1.00
1137;DHT22;557;48.466;7.950;2022-07-23T18:45:39;27.30;1.00
1137;DHT22;557;48.466;7.950;2022-07-23T18:48:25;27.30;1.00